createdAt,value
2022-11-30T00:00:37.581Z,75.25
2022-11-30T00:03:23.104Z,75.41
2022-11-30T00:05:54.980Z,75.19
2022-11-30T00:08:29.247Z,75.35
2022-11-30T00:11:00.825Z,75.54
2022-11-30T00:13:32.301Z,75.36
2022-11-30T00:16:04.907Z,75.54
2022-11-30T00:18:36.632Z,75.29
2022-11-30T00:21:11.718Z,75.30
2022-11-30T00:23:45.517Z,75.46
2022-11-30T00:26:19.696Z,75.45
2022-11-30T00:28:51.455Z,75.30
2022-11-30T00:31:24.476Z,75.44
2022-11-30T00:33:56.025Z,75.38
2022-11-30T00:36:27.512Z,75.34
2022-11-30T00:38:58.971Z,75.28
2022-11-30T00:41:30.634Z,75.43
2022-11-30T00:44:02.177Z,75.38
2022-11-30T00:46:33.752Z,75.50
2022-11-30T00:49:05.429Z,75.64
2022-11-30T00:51:38.956Z,75.49
2022-11-30T00:54:08.941Z,75.53
2022-11-30T00:56:40.433Z,75.41
2022-11-30T00:59:12.016Z,75.44
2022-11-30T01:01:43.558Z,75.44
2022-11-30T01:04:15.204Z,75.28
2022-11-30T01:06:46.793Z,75.35
2022-11-30T01:09:18.303Z,75.38
2022-11-30T01:11:49.889Z,75.39
2022-11-30T01:14:21.424Z,75.32
2022-11-30T01:16:56.243Z,75.51
2022-11-30T01:19:28.373Z,75.47
2022-11-30T01:21:59.847Z,75.48
2022-11-30T01:24:31.303Z,75.33
2022-11-30T01:27:02.878Z,75.41
2022-11-30T01:29:34.404Z,75.32
2022-11-30T01:32:06.742Z,75.53
2022-11-30T01:34:38.382Z,75.51
2022-11-30T01:37:09.897Z,75.56
2022-11-30T01:39:41.514Z,75.62
2022-11-30T01:42:18.713Z,75.66
2022-11-30T01:44:55.989Z,75.65
2022-11-30T01:47:34.434Z,75.66
2022-11-30T01:50:10.551Z,75.69
2022-11-30T01:52:44.483Z,75.70
2022-11-30T01:55:21.362Z,75.60
2022-11-30T01:57:56.147Z,75.73
2022-11-30T02:00:29.132Z,75.59
2022-11-30T02:03:05.955Z,75.53
2022-11-30T02:05:39.964Z,75.64
2022-11-30T02:08:13.170Z,75.71
2022-11-30T02:10:51.234Z,75.70
2022-11-30T02:13:39.512Z,75.79
2022-11-30T02:16:20.349Z,75.81
2022-11-30T02:19:05.785Z,75.92
2022-11-30T02:21:45.858Z,75.94
2022-11-30T02:24:38.763Z,75.85
2022-11-30T02:27:28.157Z,75.78
2022-11-30T02:30:05.263Z,75.85
2022-11-30T02:32:43.296Z,75.87
2022-11-30T02:35:18.652Z,75.90
2022-11-30T02:37:52.840Z,75.83
2022-11-30T02:40:25.141Z,75.92
2022-11-30T02:43:00.177Z,75.79
2022-11-30T02:45:39.517Z,75.79
2022-11-30T02:48:13.377Z,75.92
2022-11-30T02:50:48.427Z,75.96
2022-11-30T02:53:20.246Z,76.06
2022-11-30T09:11:45.041Z,79.52
2022-11-30T09:14:16.629Z,79.24
2022-11-30T09:16:48.254Z,79.10
2022-11-30T09:19:19.995Z,79.10
2022-11-30T09:21:52.613Z,78.92
2022-11-30T09:24:24.446Z,78.79
2022-11-30T09:26:58.776Z,78.71
2022-11-30T09:29:30.632Z,78.44
2022-11-30T09:32:02.150Z,78.31
2022-11-30T09:34:33.641Z,78.40
2022-11-30T09:37:05.308Z,78.06
2022-11-30T09:39:36.866Z,78.09
2022-11-30T09:42:34.228Z,78.11
2022-11-30T09:45:12.614Z,78.29
2022-11-30T09:48:12.605Z,78.27
2022-11-30T09:50:47.253Z,77.69
2022-11-30T09:53:29.466Z,77.73
2022-11-30T09:56:04.159Z,77.61
2022-11-30T09:58:46.902Z,77.71
2022-11-30T10:01:22.145Z,77.45
2022-11-30T10:03:54.481Z,77.42
2022-11-30T10:06:33.411Z,77.71
2022-11-30T10:09:29.005Z,77.83
2022-11-30T10:12:05.510Z,77.71
2022-11-30T10:14:59.824Z,77.76
2022-11-30T10:17:40.851Z,77.56
2022-11-30T10:20:41.978Z,77.53
2022-11-30T10:23:24.589Z,77.60
2022-11-30T10:25:59.090Z,77.81
2022-11-30T10:28:48.016Z,77.41
2022-11-30T10:31:26.569Z,77.67
2022-11-30T10:34:04.550Z,77.56
2022-11-30T10:36:42.855Z,76.71
2022-11-30T10:39:21.628Z,77.34
2022-11-30T10:41:58.126Z,77.25
2022-11-30T10:44:32.635Z,77.18
2022-11-30T10:47:08.085Z,77.41
2022-11-30T10:49:42.663Z,77.50
2022-11-30T10:52:19.781Z,76.81
2022-11-30T10:54:56.846Z,76.76
2022-11-30T10:57:34.095Z,76.75
2022-11-30T11:00:13.778Z,76.71
2022-11-30T11:02:47.908Z,76.73
2022-11-30T11:05:22.704Z,76.73
2022-11-30T11:08:06.842Z,76.63
2022-11-30T11:10:44.954Z,76.85
2022-11-30T11:13:22.358Z,76.37
2022-11-30T11:16:02.349Z,76.72
2022-11-30T11:18:35.251Z,76.59
2022-11-30T11:21:17.528Z,76.34
2022-11-30T11:23:51.187Z,76.57
2022-11-30T11:26:24.749Z,76.56
2022-11-30T11:28:56.030Z,76.38
2022-11-30T11:31:37.862Z,76.66
2022-11-30T11:34:26.951Z,76.57
2022-11-30T11:37:14.693Z,76.52
2022-11-30T11:39:56.213Z,76.20
2022-11-30T11:42:30.812Z,76.43
2022-11-30T11:45:04.038Z,76.33
2022-11-30T11:47:41.335Z,76.02
2022-11-30T11:53:51.594Z,76.39
2022-11-30T11:56:28.404Z,76.18
2022-11-30T11:59:03.659Z,76.27
2022-11-30T12:01:47.954Z,76.18
2022-11-30T12:04:38.680Z,76.24
2022-11-30T12:07:20.474Z,76.31
2022-11-30T12:10:50.549Z,76.55
2022-11-30T12:13:18.958Z,76.25
2022-11-30T12:16:02.182Z,76.42
2022-11-30T12:18:43.794Z,76.31
2022-11-30T12:21:17.604Z,76.03
2022-11-30T12:24:03.749Z,76.14
2022-11-30T12:26:42.011Z,76.06
2022-11-30T12:29:26.327Z,75.59
2022-11-30T12:32:14.333Z,75.65
2022-11-30T12:34:57.100Z,75.96
2022-11-30T12:37:47.200Z,76.31
2022-11-30T12:40:34.218Z,76.16
2022-11-30T12:43:17.802Z,75.90
2022-11-30T12:45:53.004Z,76.12
2022-11-30T12:48:35.021Z,76.00
2022-11-30T12:51:18.076Z,76.03
2022-11-30T12:53:56.867Z,76.14
2022-11-30T12:56:42.926Z,76.25
2022-11-30T12:59:29.394Z,76.50
2022-11-30T13:02:17.061Z,76.47
2022-11-30T13:04:58.341Z,76.44
2022-11-30T13:07:35.571Z,76.31
2022-11-30T13:10:18.811Z,76.28
2022-11-30T13:12:52.794Z,76.12
2022-11-30T13:15:27.056Z,76.16
2022-11-30T13:17:58.909Z,76.18
2022-11-30T13:20:38.803Z,76.24
2022-11-30T13:23:15.008Z,75.97
2022-11-30T13:28:56.676Z,75.54
2022-11-30T13:31:34.179Z,75.54
2022-11-30T13:34:05.830Z,75.60
2022-11-30T13:36:40.693Z,75.49
2022-11-30T13:39:26.229Z,75.84
2022-11-30T13:42:34.704Z,75.68
2022-11-30T13:45:31.988Z,75.68
2022-11-30T13:48:30.678Z,75.77
2022-11-30T13:51:02.576Z,75.85
2022-11-30T13:53:37.255Z,75.81
2022-11-30T13:56:35.269Z,75.85
2022-11-30T13:59:40.970Z,75.76
2022-11-30T14:02:59.875Z,75.87
2022-11-30T14:05:44.599Z,75.82
2022-11-30T14:08:42.719Z,75.61
2022-11-30T14:11:40.066Z,75.76
2022-11-30T14:14:45.887Z,75.72
2022-11-30T14:17:21.590Z,75.76
2022-11-30T14:19:58.943Z,75.71
2022-11-30T14:22:31.909Z,75.75
2022-11-30T14:25:04.480Z,75.78
2022-11-30T14:27:38.584Z,75.94
2022-11-30T14:30:19.604Z,76.04
2022-11-30T14:32:57.597Z,75.82
2022-11-30T14:35:33.526Z,75.92
2022-11-30T14:38:19.199Z,75.94
2022-11-30T14:40:55.188Z,75.91
2022-11-30T14:43:26.962Z,75.87
2022-11-30T14:46:08.182Z,75.74
2022-11-30T14:48:45.382Z,75.50
2022-11-30T14:51:17.051Z,75.68
2022-11-30T14:53:56.056Z,75.67
2022-11-30T14:56:34.241Z,75.62
2022-11-30T14:59:13.781Z,75.63
2022-11-30T15:01:45.807Z,75.86
2022-11-30T15:04:19.261Z,76.01
2022-11-30T15:06:50.918Z,75.89
2022-11-30T15:09:26.012Z,75.84
2022-11-30T15:11:58.331Z,75.90
2022-11-30T15:14:29.949Z,75.94
2022-11-30T15:17:01.458Z,75.95
2022-11-30T15:19:35.246Z,75.95
2022-11-30T15:22:06.777Z,75.91
2022-11-30T15:24:38.316Z,75.94
2022-11-30T15:27:15.096Z,75.80
2022-11-30T15:29:50.936Z,75.68
2022-11-30T15:32:25.757Z,75.49
2022-11-30T15:34:58.859Z,75.26
2022-11-30T15:37:37.981Z,75.46
2022-11-30T15:40:15.834Z,76.01
2022-11-30T15:42:50.474Z,76.06
2022-11-30T15:45:25.400Z,76.19
2022-11-30T15:47:58.731Z,76.23
2022-11-30T15:50:41.483Z,75.88
2022-11-30T15:53:31.729Z,75.96
2022-11-30T15:56:06.693Z,75.88
2022-11-30T15:58:45.575Z,75.95
2022-11-30T16:01:22.150Z,75.63
2022-11-30T16:04:09.223Z,75.68
2022-11-30T16:06:48.810Z,75.68
2022-11-30T16:09:23.963Z,75.51
2022-11-30T16:11:59.176Z,75.72
2022-11-30T16:14:31.068Z,75.90
2022-11-30T16:17:07.313Z,75.86
2022-11-30T16:19:40.632Z,75.76
2022-11-30T16:22:15.305Z,75.63
2022-11-30T16:24:46.765Z,75.52
2022-11-30T16:27:22.322Z,75.39
2022-11-30T16:29:55.214Z,75.46
2022-11-30T16:32:27.129Z,75.70
2022-11-30T16:34:58.732Z,75.80
2022-11-30T16:37:30.270Z,75.88
2022-11-30T16:40:01.772Z,75.74
2022-11-30T16:42:33.244Z,75.82
2022-11-30T16:45:05.289Z,75.76
2022-11-30T16:47:36.890Z,75.75
2022-11-30T16:50:11.658Z,75.87
2022-11-30T16:52:43.988Z,75.76
2022-11-30T16:55:20.158Z,75.78
2022-11-30T16:57:54.216Z,75.93
2022-11-30T17:00:26.294Z,75.95
2022-11-30T17:03:01.240Z,75.84
2022-11-30T17:05:33.681Z,75.85
2022-11-30T17:08:05.681Z,75.81
2022-11-30T17:10:38.264Z,75.81
2022-11-30T17:13:11.496Z,75.94
2022-11-30T17:15:43.008Z,75.70
2022-11-30T17:18:15.849Z,75.73
2022-11-30T17:20:48.899Z,75.83
2022-11-30T17:23:20.532Z,75.92
2022-11-30T17:25:52.150Z,75.82
2022-11-30T17:28:24.042Z,75.43
2022-11-30T17:30:55.675Z,75.78
2022-11-30T17:33:27.300Z,75.77
2022-11-30T17:35:58.773Z,75.73
2022-11-30T17:38:30.330Z,75.51
2022-11-30T17:41:04.793Z,75.53
2022-11-30T17:43:38.169Z,75.58
2022-11-30T17:46:15.130Z,75.49
2022-11-30T17:48:48.235Z,75.65
2022-11-30T17:51:22.223Z,75.50
2022-11-30T17:53:53.878Z,75.69
2022-11-30T17:56:26.287Z,75.59
2022-11-30T17:58:57.942Z,75.70
2022-11-30T18:01:30.553Z,75.72
2022-11-30T18:04:02.100Z,75.74
2022-11-30T18:06:33.696Z,75.78
2022-11-30T18:09:05.464Z,75.87
2022-11-30T18:11:37.033Z,76.01
2022-11-30T18:14:08.625Z,76.03
2022-11-30T18:16:40.434Z,75.94
2022-11-30T18:19:14.828Z,76.05
2022-11-30T18:21:46.523Z,75.95
2022-11-30T18:24:22.527Z,75.86
2022-11-30T18:26:56.686Z,75.56
2022-11-30T18:29:28.989Z,75.83
2022-11-30T18:32:00.490Z,75.74
2022-11-30T18:34:32.084Z,75.75
2022-11-30T18:37:03.796Z,75.59
2022-11-30T18:39:35.345Z,75.71
2022-11-30T18:42:06.962Z,75.74
2022-11-30T18:44:38.440Z,75.82
2022-11-30T18:47:09.968Z,75.84
2022-11-30T18:49:41.445Z,75.61
2022-11-30T18:52:12.950Z,75.47
2022-11-30T18:54:44.437Z,75.54
2022-11-30T18:57:15.938Z,75.87
2022-11-30T18:59:49.805Z,75.80
2022-11-30T19:02:24.366Z,75.69
2022-11-30T19:04:55.985Z,75.56
2022-11-30T19:07:27.511Z,75.45
2022-11-30T19:09:59.083Z,75.36
2022-11-30T19:12:30.618Z,75.45
2022-11-30T19:15:04.270Z,75.64
2022-11-30T19:17:35.889Z,75.78
2022-11-30T19:20:09.244Z,75.66
2022-11-30T19:22:40.707Z,75.53
2022-11-30T19:25:13.606Z,75.63
2022-11-30T19:27:48.106Z,75.74
2022-11-30T19:30:20.307Z,75.70
2022-11-30T19:32:51.797Z,75.38
2022-11-30T19:35:25.025Z,75.32
2022-11-30T19:37:56.553Z,75.34
2022-11-30T19:40:28.166Z,75.59
2022-11-30T19:43:00.163Z,75.52
2022-11-30T19:45:31.680Z,75.49
2022-11-30T19:48:03.424Z,75.48
2022-11-30T19:50:34.916Z,75.51
2022-11-30T19:53:07.404Z,75.51
2022-11-30T19:55:41.575Z,75.63
2022-11-30T19:58:13.158Z,75.47
2022-11-30T20:00:47.893Z,75.57
2022-11-30T20:03:19.905Z,75.54
2022-11-30T20:05:52.079Z,75.42
2022-11-30T20:08:23.769Z,75.50
2022-11-30T20:10:55.318Z,75.56
2022-11-30T20:13:26.898Z,75.32
2022-11-30T20:15:58.511Z,75.11
2022-11-30T20:18:30.131Z,75.34
2022-11-30T20:21:12.468Z,75.38
2022-11-30T20:23:45.196Z,75.43
2022-11-30T20:26:19.568Z,75.42
2022-11-30T20:28:52.480Z,75.47
2022-11-30T20:31:25.936Z,75.11
2022-11-30T20:33:55.867Z,75.18
2022-11-30T20:36:27.552Z,74.97
2022-11-30T20:39:00.420Z,75.10
2022-11-30T20:41:31.950Z,75.12
2022-11-30T20:44:03.850Z,75.15
2022-11-30T20:46:36.862Z,75.23
2022-11-30T20:49:17.469Z,75.11
2022-11-30T20:51:49.682Z,75.07
2022-11-30T20:54:21.312Z,75.23
2022-11-30T20:56:52.970Z,75.04
2022-11-30T20:59:26.823Z,74.70
2022-11-30T21:01:59.280Z,75.03
2022-11-30T21:04:30.826Z,75.21
2022-11-30T21:07:02.328Z,75.11
2022-11-30T21:09:33.864Z,75.13
2022-11-30T21:12:05.673Z,75.25
2022-11-30T21:14:37.488Z,75.00
2022-11-30T21:17:09.102Z,75.04
2022-11-30T21:19:40.622Z,74.94
2022-11-30T21:22:12.249Z,75.10
2022-11-30T21:24:43.808Z,75.17
2022-11-30T21:27:15.409Z,74.80
2022-11-30T21:29:46.898Z,74.83
2022-11-30T21:32:19.468Z,74.56
2022-11-30T21:34:50.993Z,74.85
2022-11-30T21:37:22.716Z,74.71
2022-11-30T21:39:54.450Z,74.26
2022-11-30T21:42:26.020Z,74.58
2022-11-30T21:44:57.534Z,74.90
2022-11-30T21:47:33.040Z,74.73
2022-11-30T21:50:05.017Z,74.54
2022-11-30T21:52:36.653Z,74.76
2022-11-30T21:55:10.052Z,74.75
2022-11-30T21:57:41.544Z,74.81
2022-11-30T22:00:14.943Z,74.83
2022-11-30T22:02:48.568Z,74.80
2022-11-30T22:05:20.283Z,74.76
2022-11-30T22:07:53.672Z,74.84
2022-11-30T22:10:23.701Z,74.98
2022-11-30T22:12:55.296Z,74.72
2022-11-30T22:15:26.805Z,74.70
2022-11-30T22:17:58.319Z,74.77
2022-11-30T22:20:29.796Z,74.63
2022-11-30T22:23:01.350Z,74.67
2022-11-30T22:25:32.852Z,74.67
2022-11-30T22:28:04.737Z,74.84
2022-11-30T22:30:37.084Z,74.74
2022-11-30T22:33:08.797Z,74.74
2022-11-30T22:35:40.260Z,74.81
2022-11-30T22:38:13.400Z,74.89
2022-11-30T22:40:44.894Z,74.64
2022-11-30T22:43:16.380Z,74.64
2022-11-30T22:45:47.876Z,74.72
2022-11-30T22:48:19.396Z,74.62
2022-11-30T22:50:50.979Z,74.57
2022-11-30T22:53:22.639Z,74.73
2022-11-30T22:55:54.376Z,74.80
2022-11-30T22:58:26.017Z,74.87
2022-11-30T23:00:57.710Z,74.74
2022-11-30T23:03:30.170Z,74.78
2022-11-30T23:06:01.872Z,74.77
2022-11-30T23:08:33.785Z,74.76
2022-11-30T23:11:07.928Z,74.83
2022-11-30T23:13:41.920Z,74.63
2022-11-30T23:16:15.522Z,74.65
2022-11-30T23:18:49.511Z,74.79
2022-11-30T23:21:22.653Z,74.68
2022-11-30T23:23:55.846Z,74.67
2022-11-30T23:26:29.036Z,74.79
2022-11-30T23:29:04.619Z,74.65
2022-11-30T23:31:38.387Z,74.57
2022-11-30T23:34:13.212Z,74.68
2022-11-30T23:36:45.085Z,74.60
2022-11-30T23:39:19.074Z,74.52
2022-11-30T23:41:50.955Z,74.66
2022-11-30T23:44:22.681Z,74.47
2022-11-30T23:46:54.267Z,74.36
2022-11-30T23:49:25.847Z,74.51
2022-11-30T23:51:58.389Z,74.69
2022-11-30T23:54:29.868Z,74.51
2022-11-30T23:57:01.353Z,74.45
2022-11-30T23:59:32.865Z,74.68
